Time;durP1;ratioP1;P1;durP2;ratioP2;P2;SDS_P1;SDS_P2;PMS_P1;PMS_P2;Temp;Humidity;BMP_temperature;BMP_pressure;BME280_temperature;BME280_humidity;BME280_pressure;Samples;Min_cycle;Max_cycle;Signal;HPM_P1;HPM_P2
2023/07/05 00:00:22;;;;;;;8.80;4.70;;;;;;;13.07;100.00;100621.78;4960329;28;20046;-75
2023/07/05 00:03:10;;;;;;;7.10;4.38;;;;;;;13.04;100.00;100616.66;4960600;28;20030;-74
2023/07/05 00:06:02;;;;;;;8.90;4.72;;;;;;;13.06;100.00;100605.94;4953407;28;20787;-74
2023/07/05 00:08:48;;;;;;;8.27;4.32;;;;;;;13.07;100.00;100594.34;4959657;28;20093;-74
2023/07/05 00:11:34;;;;;;;8.30;5.05;;;;;;;13.07;100.00;100584.56;4962705;28;20058;-74
2023/07/05 00:14:19;;;;;;;9.35;5.07;;;;;;;13.06;100.00;100572.22;4958498;28;20046;-73
2023/07/05 00:17:05;;;;;;;9.75;5.65;;;;;;;13.08;100.00;100559.69;4960188;28;20783;-73
2023/07/05 00:19:52;;;;;;;9.20;5.60;;;;;;;13.10;100.00;100555.16;4959249;28;20126;-74
2023/07/05 00:22:40;;;;;;;8.38;5.55;;;;;;;13.08;100.00;100542.91;4957510;28;20047;-74
2023/07/05 00:25:26;;;;;;;9.35;5.13;;;;;;;13.08;100.00;100535.78;4957507;28;20047;-74
2023/07/05 00:28:15;;;;;;;7.13;4.97;;;;;;;13.09;100.00;100518.91;4959343;28;20143;-75
2023/07/05 00:31:02;;;;;;;7.78;5.15;;;;;;;13.11;100.00;100510.81;4961528;28;20037;-75
2023/07/05 00:33:48;;;;;;;10.32;5.28;;;;;;;13.13;100.00;100503.63;4950687;28;20050;-75
2023/07/05 00:36:34;;;;;;;10.25;5.20;;;;;;;13.09;100.00;100502.97;4960157;28;20081;-74
2023/07/05 00:39:20;;;;;;;8.20;4.82;;;;;;;13.09;100.00;100484.34;4960433;28;20035;-74
2023/07/05 00:42:05;;;;;;;9.23;5.20;;;;;;;13.07;100.00;100480.91;4947975;28;20049;-75
2023/07/05 00:45:10;;;;;;;8.80;5.03;;;;;;;13.09;100.00;100460.44;4925873;28;20084;-75
2023/07/05 00:47:57;;;;;;;8.10;4.80;;;;;;;13.11;100.00;100453.22;4960153;28;20042;-75
2023/07/05 00:50:49;;;;;;;10.90;5.03;;;;;;;13.12;100.00;100446.94;4949314;28;20078;-75
2023/07/05 00:53:38;;;;;;;7.20;4.72;;;;;;;13.09;100.00;100422.38;4947763;28;20415;-75
2023/07/05 00:56:33;;;;;;;7.78;4.72;;;;;;;13.06;100.00;100420.75;4961420;28;20224;-74
2023/07/05 00:59:21;;;;;;;8.82;4.70;;;;;;;13.05;100.00;100416.41;4948915;28;20042;-74
2023/07/05 01:02:07;;;;;;;10.50;4.88;;;;;;;13.06;100.00;100420.75;4958623;28;20102;-75
2023/07/05 01:04:52;;;;;;;8.43;4.75;;;;;;;13.06;100.00;100409.28;4939501;28;20042;-73
2023/07/05 01:07:38;;;;;;;11.07;5.25;;;;;;;13.08;100.00;100410.88;4960592;28;20096;-73
2023/07/05 01:10:25;;;;;;;10.50;5.32;;;;;;;13.07;100.00;100411.81;4960999;28;20142;-73
2023/07/05 01:13:16;;;;;;;9.90;5.63;;;;;;;13.05;100.00;100421.72;4958433;28;20041;-73
2023/07/05 01:16:19;;;;;;;9.93;5.50;;;;;;;13.06;100.00;100422.56;4944951;28;20031;-73
2023/07/05 01:19:24;;;;;;;9.00;5.43;;;;;;;13.07;100.00;100411.81;4957053;28;20589;-74
2023/07/05 01:22:29;;;;;;;7.95;5.70;;;;;;;13.07;100.00;100403.84;4956868;28;21088;-75
2023/07/05 01:25:26;;;;;;;9.57;5.88;;;;;;;13.11;100.00;100401.84;4947313;28;20047;-73
2023/07/05 01:28:12;;;;;;;11.73;6.28;;;;;;;13.14;100.00;100405.16;4945148;28;20038;-74
2023/07/05 01:31:36;;;;;;;10.35;6.20;;;;;;;13.14;100.00;100393.69;4958696;28;20121;-74
2023/07/05 01:34:28;;;;;;;8.35;5.70;;;;;;;13.15;100.00;100387.44;4897473;28;20042;-75
2023/07/05 01:37:37;;;;;;;11.85;6.50;;;;;;;13.17;100.00;100375.75;4958841;28;20130;-74
2023/07/05 01:40:25;;;;;;;9.00;6.55;;;;;;;13.17;100.00;100364.25;4959209;28;20027;-74
2023/07/05 01:43:13;;;;;;;11.50;6.63;;;;;;;13.14;100.00;100357.34;4959002;28;20121;-74
2023/07/05 01:46:27;;;;;;;10.73;6.15;;;;;;;13.08;100.00;100347.09;4958783;28;20390;-75
2023/07/05 01:49:32;;;;;;;12.15;6.05;;;;;;;13.03;100.00;100338.59;4934605;28;20062;-74
2023/07/05 01:52:21;;;;;;;10.25;6.70;;;;;;;13.07;100.00;100313.50;4957485;28;20673;-74
2023/07/05 01:55:19;;;;;;;9.93;6.72;;;;;;;13.08;100.00;100304.56;4951086;28;20466;-74
2023/07/05 01:58:10;;;;;;;13.25;7.20;;;;;;;13.13;100.00;100297.16;4951127;28;20064;-74
2023/07/05 02:00:57;;;;;;;13.70;7.18;;;;;;;13.12;100.00;100276.84;4959099;28;21991;-74
2023/07/05 02:03:49;;;;;;;10.73;6.55;;;;;;;13.16;100.00;100270.41;4945981;28;20089;-74
2023/07/05 02:06:36;;;;;;;12.95;7.35;;;;;;;13.17;100.00;100255.28;4957091;28;20113;-74
2023/07/05 02:09:22;;;;;;;12.10;6.97;;;;;;;13.18;100.00;100236.59;4947617;28;20042;-74
2023/07/05 02:12:08;;;;;;;10.40;7.07;;;;;;;13.16;100.00;100217.25;4940256;28;20062;-73
2023/07/05 02:14:59;;;;;;;12.52;7.38;;;;;;;13.16;100.00;100195.13;4957685;28;20058;-74
2023/07/05 02:17:45;;;;;;;15.02;7.53;;;;;;;13.15;100.00;100188.97;4959055;28;20096;-74
2023/07/05 02:20:31;;;;;;;11.88;7.05;;;;;;;13.13;100.00;100184.72;4945946;28;20089;-74
2023/07/05 02:23:17;;;;;;;11.15;7.00;;;;;;;13.11;100.00;100187.47;4957509;28;20093;-74
2023/07/05 02:26:05;;;;;;;15.40;7.35;;;;;;;13.13;100.00;100174.91;4935861;28;20047;-74
2023/07/05 02:28:51;;;;;;;11.27;6.90;;;;;;;13.10;100.00;100156.53;4956465;28;20050;-74
2023/07/05 02:31:36;;;;;;;14.52;7.53;;;;;;;13.09;100.00;100154.84;4959196;28;20106;-74
2023/07/05 02:34:22;;;;;;;12.30;7.57;;;;;;;13.11;100.00;100144.94;4955076;28;20046;-74
2023/07/05 02:37:11;;;;;;;13.60;7.88;;;;;;;13.12;100.00;100143.97;4956446;28;20057;-74
2023/07/05 02:39:56;;;;;;;11.00;7.68;;;;;;;13.16;100.00;100132.19;4958263;28;20047;-74
2023/07/05 02:42:42;;;;;;;14.07;7.38;;;;;;;13.17;100.00;100139.22;4957095;28;20161;-74
2023/07/05 02:45:28;;;;;;;14.57;7.90;;;;;;;13.22;100.00;100124.75;4956244;28;20121;-74
2023/07/05 02:48:14;;;;;;;14.93;8.48;;;;;;;13.22;100.00;100120.28;4957187;28;20034;-75
2023/07/05 02:51:00;;;;;;;16.80;8.70;;;;;;;13.23;100.00;100110.53;4944394;28;20143;-75
2023/07/05 02:53:46;;;;;;;15.55;8.13;;;;;;;13.21;100.00;100092.00;4957815;28;20121;-76
2023/07/05 02:56:31;;;;;;;14.82;8.68;;;;;;;13.20;100.00;100085.00;4958681;28;20074;-75
2023/07/05 02:59:17;;;;;;;12.85;9.00;;;;;;;13.19;100.00;100080.66;4955439;28;20403;-75
2023/07/05 03:02:03;;;;;;;14.32;8.25;;;;;;;13.18;100.00;100076.25;4947589;28;20492;-75
2023/07/05 03:04:52;;;;;;;15.55;9.50;;;;;;;13.17;100.00;100070.13;4955683;28;20101;-75
2023/07/05 03:07:38;;;;;;;14.93;9.38;;;;;;;13.20;100.00;100052.25;4957834;28;20085;-74
2023/07/05 03:10:24;;;;;;;16.45;9.73;;;;;;;13.22;100.00;100039.69;4957478;28;20043;-75
2023/07/05 03:13:10;;;;;;;17.05;8.95;;;;;;;13.21;100.00;100035.34;4956920;28;20102;-74
2023/07/05 03:15:57;;;;;;;14.90;8.82;;;;;;;13.20;100.00;100023.00;4957552;28;20074;-74
2023/07/05 03:18:42;;;;;;;15.02;9.45;;;;;;;13.20;100.00;100023.88;4946724;28;20034;-75
2023/07/05 03:21:28;;;;;;;14.85;8.85;;;;;;;13.23;100.00;100006.88;4956500;28;20058;-75
2023/07/05 03:24:14;;;;;;;15.13;8.88;;;;;;;13.22;100.00;100008.66;4956924;28;20503;-75
2023/07/05 03:27:00;;;;;;;18.60;9.60;;;;;;;13.22;100.00;100013.13;4948296;28;20039;-75
2023/07/05 03:29:46;;;;;;;18.45;9.77;;;;;;;13.24;100.00;100016.53;4961497;28;20987;-75
2023/07/05 03:32:32;;;;;;;16.75;10.20;;;;;;;13.24;100.00;100016.53;4946841;28;20438;-74
2023/07/05 03:35:17;;;;;;;17.50;10.48;;;;;;;13.21;100.00;100000.78;4942760;28;20039;-75
2023/07/05 03:38:03;;;;;;;18.10;11.45;;;;;;;13.23;100.00;100004.22;4960883;28;21098;-74
2023/07/05 03:40:58;;;;;;;18.08;10.30;;;;;;;13.24;100.00;100008.56;4959727;28;20130;-76
2023/07/05 03:43:46;;;;;;;16.08;9.82;;;;;;;13.27;100.00;100008.34;4960991;28;20125;-76
2023/07/05 03:46:38;;;;;;;16.85;10.23;;;;;;;13.31;100.00;100007.19;4942653;28;20153;-76
2023/07/05 03:49:24;;;;;;;22.10;10.00;;;;;;;13.33;100.00;100007.06;4950798;28;20049;-77
2023/07/05 03:52:10;;;;;;;16.02;9.18;;;;;;;13.38;100.00;99997.81;4959738;28;20181;-76
2023/07/05 03:55:02;;;;;;;15.57;9.75;;;;;;;13.42;100.00;99995.78;4960509;28;21313;-76
2023/07/05 03:57:48;;;;;;;21.10;9.80;;;;;;;13.42;100.00;99993.94;4960725;28;20046;-75
2023/07/05 04:00:34;;;;;;;14.60;9.18;;;;;;;13.45;100.00;99998.22;4962821;28;20047;-77
2023/07/05 04:03:19;;;;;;;14.15;9.93;;;;;;;13.44;100.00;99997.38;4963131;28;20042;-76
2023/07/05 04:06:05;;;;;;;16.30;9.57;;;;;;;13.44;100.00;99986.75;4949734;28;20145;-75
2023/07/05 04:08:51;;;;;;;18.65;10.23;;;;;;;13.48;100.00;99994.50;4963590;28;20046;-75
2023/07/05 04:11:37;;;;;;;17.17;9.77;;;;;;;13.50;100.00;99989.97;4943339;28;20560;-75
2023/07/05 04:14:26;;;;;;;17.55;9.60;;;;;;;13.52;100.00;99988.84;4960894;28;20137;-75
2023/07/05 04:17:12;;;;;;;17.65;9.45;;;;;;;13.55;100.00;99979.81;4961892;28;21853;-75
2023/07/05 04:19:57;;;;;;;13.35;8.35;;;;;;;13.58;100.00;99974.28;4959721;28;20042;-77
2023/07/05 04:22:43;;;;;;;14.52;7.80;;;;;;;13.59;100.00;99976.00;4960384;28;20062;-75
2023/07/05 04:25:29;;;;;;;14.80;8.00;;;;;;;13.61;100.00;99976.72;4958842;28;20530;-75
2023/07/05 04:28:15;;;;;;;11.23;6.80;;;;;;;13.63;100.00;99979.28;4958900;28;20042;-75
2023/07/05 04:31:01;;;;;;;8.77;5.43;;;;;;;13.61;100.00;99982.03;4958615;28;20515;-76
2023/07/05 04:33:47;;;;;;;8.57;4.80;;;;;;;13.57;100.00;99972.59;4961990;28;20081;-76
2023/07/05 04:36:33;;;;;;;6.93;4.53;;;;;;;13.49;100.00;99975.81;4960856;28;20049;-75
2023/07/05 04:39:18;;;;;;;6.45;4.15;;;;;;;13.42;100.00;99978.00;4962423;28;20042;-75
2023/07/05 04:42:04;;;;;;;6.63;3.67;;;;;;;13.38;100.00;99976.53;4960758;28;20065;-78
2023/07/05 04:44:50;;;;;;;7.40;3.35;;;;;;;13.34;100.00;99984.84;4959976;28;20034;-75
2023/07/05 04:47:36;;;;;;;8.32;3.47;;;;;;;13.24;100.00;99989.97;4960478;28;20049;-75
2023/07/05 04:50:22;;;;;;;6.78;3.65;;;;;;;13.21;100.00;99974.22;4960632;28;20066;-74
2023/07/05 04:53:07;;;;;;;6.00;3.70;;;;;;;13.18;100.00;99984.09;4962752;28;20045;-76
2023/07/05 04:55:59;;;;;;;6.70;3.80;;;;;;;13.18;100.00;99976.13;4960598;28;20035;-76
2023/07/05 04:58:48;;;;;;;5.38;3.40;;;;;;;13.13;100.00;99978.25;4952225;28;20069;-78
2023/07/05 05:01:34;;;;;;;6.50;3.53;;;;;;;13.13;100.00;99980.91;4960266;28;20554;-76
2023/07/05 05:04:19;;;;;;;5.40;2.90;;;;;;;13.14;100.00;99974.63;4960516;28;20651;-76
2023/07/05 05:07:06;;;;;;;5.75;3.85;;;;;;;13.16;100.00;99966.56;4960225;28;20094;-75
2023/07/05 05:09:51;;;;;;;4.18;3.40;;;;;;;13.16;100.00;99971.88;4947603;28;20038;-77
2023/07/05 05:12:37;;;;;;;5.10;3.60;;;;;;;13.18;100.00;99970.81;4958152;28;20062;-78
2023/07/05 05:15:23;;;;;;;5.38;3.25;;;;;;;13.18;100.00;99973.47;4949619;28;20161;-78
2023/07/05 05:18:09;;;;;;;5.93;3.58;;;;;;;13.17;100.00;99979.75;4962002;28;20043;-77
2023/07/05 05:20:55;;;;;;;5.47;3.58;;;;;;;13.17;100.00;99977.09;4960028;28;20457;-75
2023/07/05 05:23:40;;;;;;;6.90;3.60;;;;;;;13.12;100.00;99973.03;4958311;28;20039;-76
2023/07/05 05:26:26;;;;;;;5.80;3.53;;;;;;;13.07;100.00;99969.88;4959904;28;20046;-76
2023/07/05 05:29:12;;;;;;;5.90;3.78;;;;;;;13.02;100.00;99960.41;4957574;28;20050;-77
2023/07/05 05:31:58;;;;;;;6.50;4.03;;;;;;;12.99;100.00;99950.00;4958333;28;20053;-78
2023/07/05 05:34:44;;;;;;;6.45;4.45;;;;;;;12.95;100.00;99948.50;4960304;28;20054;-78
2023/07/05 05:37:32;;;;;;;6.15;4.28;;;;;;;12.92;100.00;99940.78;4947544;28;20494;-78
2023/07/05 05:40:18;;;;;;;4.82;3.90;;;;;;;12.93;100.00;99941.59;4932686;28;20038;-78
2023/07/05 05:43:04;;;;;;;6.88;4.45;;;;;;;12.94;100.00;99927.38;4958533;28;20038;-76
2023/07/05 05:45:50;;;;;;;6.25;4.00;;;;;;;12.94;100.00;99927.38;4958765;28;20042;-77
2023/07/05 05:48:35;;;;;;;4.78;4.10;;;;;;;12.93;100.00;99913.25;4960744;28;20491;-76
2023/07/05 05:51:21;;;;;;;5.65;3.90;;;;;;;12.95;100.00;99907.81;4961742;28;21181;-79
2023/07/05 05:54:07;;;;;;;8.65;4.22;;;;;;;12.96;100.00;99909.53;4958614;28;20762;-78
2023/07/05 05:56:53;;;;;;;6.15;3.90;;;;;;;12.98;100.00;99905.81;4958170;28;20485;-78
2023/07/05 05:59:38;;;;;;;5.65;3.75;;;;;;;12.99;100.00;99909.31;4959817;28;20527;-79
2023/07/05 06:02:24;;;;;;;7.55;4.18;;;;;;;12.99;100.00;99896.03;4945121;28;22135;-77
2023/07/05 06:05:11;;;;;;;6.95;3.67;;;;;;;13.02;100.00;99898.47;4959294;28;20405;-78
2023/07/05 06:07:56;;;;;;;6.03;3.63;;;;;;;13.03;100.00;99902.81;4944789;28;20131;-79
2023/07/05 06:10:42;;;;;;;5.15;3.70;;;;;;;13.05;100.00;99884.97;4957233;28;20042;-76
2023/07/05 06:13:28;;;;;;;5.60;2.92;;;;;;;13.08;100.00;99890.03;4929218;28;20054;-78
2023/07/05 06:16:14;;;;;;;5.85;2.95;;;;;;;13.17;100.00;99876.13;4930086;28;20042;-77
2023/07/05 06:19:00;;;;;;;6.88;3.80;;;;;;;13.31;100.00;99872.44;4944228;28;20141;-78
2023/07/05 06:21:46;;;;;;;4.47;3.00;;;;;;;13.44;100.00;99869.75;4941921;28;20486;-76
2023/07/05 06:24:32;;;;;;;5.50;3.58;;;;;;;13.59;100.00;99858.97;4945402;28;21960;-78
2023/07/05 06:27:18;;;;;;;5.20;3.40;;;;;;;13.75;100.00;99841.88;4938926;28;20039;-79
2023/07/05 06:30:07;;;;;;;5.55;2.88;;;;;;;13.86;100.00;99844.59;4944685;28;20517;-78
2023/07/05 06:32:55;;;;;;;5.55;2.85;;;;;;;13.97;100.00;99834.00;4931495;28;20058;-78
2023/07/05 06:35:47;;;;;;;3.83;2.78;;;;;;;14.12;100.00;99818.66;4943597;28;20043;-77
2023/07/05 06:38:34;;;;;;;3.50;2.40;;;;;;;14.26;100.00;99820.25;4944035;28;20122;-79
2023/07/05 06:41:19;;;;;;;4.03;2.38;;;;;;;14.32;100.00;99802.94;4944173;28;20506;-77
2023/07/05 06:44:06;;;;;;;4.43;2.13;;;;;;;14.34;100.00;99794.84;4941299;28;20055;-79
2023/07/05 06:46:51;;;;;;;7.78;2.50;;;;;;;14.31;100.00;99795.06;4941763;28;20617;-77
2023/07/05 06:49:37;;;;;;;3.60;2.13;;;;;;;14.26;100.00;99788.31;4941555;28;20055;-78
2023/07/05 06:52:26;;;;;;;4.68;2.17;;;;;;;14.22;100.00;99773.53;4941440;28;20094;-77
2023/07/05 06:55:12;;;;;;;4.38;2.20;;;;;;;14.24;100.00;99766.28;4926747;28;20479;-77
2023/07/05 06:57:59;;;;;;;2.88;1.75;;;;;;;14.26;100.00;99759.03;4942942;28;21296;-76
2023/07/05 07:00:48;;;;;;;6.13;2.13;;;;;;;14.26;100.00;99751.03;4943913;28;20046;-77
2023/07/05 07:03:34;;;;;;;4.65;1.90;;;;;;;14.21;100.00;99744.38;4921352;28;20494;-79
2023/07/05 07:06:20;;;;;;;3.47;2.08;;;;;;;14.09;100.00;99735.53;4941208;28;20063;-79
2023/07/05 07:09:06;;;;;;;3.38;2.13;;;;;;;13.94;100.00;99717.13;4944812;28;20039;-78
2023/07/05 07:11:52;;;;;;;4.50;2.15;;;;;;;13.80;100.00;99720.88;4955319;28;20094;-78
2023/07/05 07:14:37;;;;;;;5.47;2.20;;;;;;;13.61;100.00;99715.28;4960334;28;20772;-79
2023/07/05 07:17:23;;;;;;;3.85;2.00;;;;;;;13.25;100.00;99693.97;4948083;28;20066;-78
2023/07/05 07:20:09;;;;;;;2.88;1.30;;;;;;;12.83;100.00;99678.44;4962514;28;20038;-74
2023/07/05 07:22:55;;;;;;;1.65;1.15;;;;;;;12.45;100.00;99667.88;4963208;28;20046;-76
2023/07/05 07:25:41;;;;;;;1.10;0.90;;;;;;;12.05;100.00;99658.28;4962455;28;20156;-74
2023/07/05 07:28:30;;;;;;;1.13;0.65;;;;;;;11.71;100.00;99655.31;4948808;28;20038;-75
2023/07/05 07:31:20;;;;;;;1.48;0.80;;;;;;;11.39;100.00;99618.63;4960104;28;20117;-76
2023/07/05 07:34:07;;;;;;;1.15;0.80;;;;;;;11.18;100.00;99591.78;4962841;28;20144;-75
2023/07/05 07:36:53;;;;;;;1.23;0.70;;;;;;;10.97;100.00;99574.63;4963854;28;20129;-76
2023/07/05 07:39:39;;;;;;;2.42;0.70;;;;;;;10.89;100.00;99536.34;4964964;28;20057;-75
2023/07/05 07:42:24;;;;;;;0.70;0.70;;;;;;;10.74;100.00;99494.09;4948566;28;20042;-74
2023/07/05 07:45:10;;;;;;;2.30;0.70;;;;;;;10.63;100.00;99435.72;4947614;28;21509;-76
2023/07/05 07:47:56;;;;;;;0.82;0.60;;;;;;;10.53;100.00;99414.34;4962002;28;20050;-76
2023/07/05 07:50:48;;;;;;;1.27;0.50;;;;;;;10.53;100.00;99377.28;4960448;28;20043;-76
2023/07/05 07:53:34;;;;;;;1.00;0.70;;;;;;;10.53;100.00;99348.19;4944083;28;20058;-74
2023/07/05 07:56:22;;;;;;;0.68;0.60;;;;;;;10.50;100.00;99322.78;4947342;28;20289;-74
2023/07/05 07:59:08;;;;;;;0.55;0.50;;;;;;;10.51;100.00;99305.13;4946549;28;20054;-73
2023/07/05 08:01:54;;;;;;;0.80;0.52;;;;;;;10.46;100.00;99274.53;4962205;28;20133;-74
2023/07/05 08:04:44;;;;;;;1.42;0.52;;;;;;;10.46;100.00;99244.56;4960946;28;20034;-74
2023/07/05 08:07:31;;;;;;;1.10;0.45;;;;;;;10.52;100.00;99185.91;4959699;28;20765;-76
2023/07/05 08:10:17;;;;;;;1.42;0.70;;;;;;;10.56;100.00;99181.25;4961015;28;20770;-75
2023/07/05 08:13:02;;;;;;;1.27;0.68;;;;;;;10.60;100.00;99145.69;4954085;28;20161;-74
2023/07/05 08:15:48;;;;;;;2.67;0.80;;;;;;;10.61;100.00;99098.91;4941424;28;20040;-75
2023/07/05 08:18:34;;;;;;;4.00;0.95;;;;;;;10.64;100.00;99057.19;4944199;28;20612;-74
2023/07/05 08:21:20;;;;;;;1.20;0.90;;;;;;;10.69;100.00;99036.47;4927367;28;20402;-75
2023/07/05 08:24:06;;;;;;;2.95;1.33;;;;;;;10.77;100.00;98979.47;4940896;28;20038;-75
2023/07/05 08:26:51;;;;;;;3.05;1.30;;;;;;;10.88;100.00;98952.22;4942241;28;20043;-75
2023/07/05 08:29:38;;;;;;;6.20;1.40;;;;;;;11.02;100.00;98906.13;4940867;28;20165;-76
2023/07/05 08:32:23;;;;;;;4.00;1.17;;;;;;;11.24;100.00;98879.59;4944781;28;20070;-77
2023/07/05 08:35:09;;;;;;;4.55;0.80;;;;;;;11.48;100.00;98835.38;4942760;28;20078;-76
2023/07/05 08:37:55;;;;;;;2.65;0.85;;;;;;;11.65;100.00;98810.13;4941947;28;20039;-76
2023/07/05 08:40:41;;;;;;;2.25;0.90;;;;;;;11.79;100.00;98804.56;4943893;28;20052;-76
2023/07/05 08:43:36;;;;;;;4.78;0.90;;;;;;;11.96;100.00;98767.81;4927433;28;20174;-74
2023/07/05 08:46:22;;;;;;;5.88;1.10;;;;;;;12.15;100.00;98737.13;4930498;28;20130;-75
2023/07/05 08:49:12;;;;;;;6.68;1.77;;;;;;;12.55;100.00;98730.16;4941984;28;20054;-74
2023/07/05 08:51:59;;;;;;;11.18;2.10;;;;;;;13.06;100.00;98756.75;4929242;28;20127;-74
2023/07/05 08:54:45;;;;;;;10.93;1.95;;;;;;;13.46;100.00;98784.22;4940712;28;20100;-75
2023/07/05 08:57:40;;;;;;;11.73;2.42;;;;;;;13.80;100.00;98819.22;4939751;28;20486;-73
2023/07/05 09:00:29;;;;;;;7.05;2.25;;;;;;;14.01;100.00;98871.44;4940399;28;20049;-74
2023/07/05 09:03:15;;;;;;;6.57;1.90;;;;;;;14.24;100.00;98935.88;4942228;28;20030;-73
2023/07/05 09:06:10;;;;;;;4.18;1.73;;;;;;;14.10;100.00;98992.13;4935726;28;20387;-74
2023/07/05 09:09:08;;;;;;;4.10;1.42;;;;;;;13.85;100.00;99031.59;4937894;28;20035;-73
2023/07/05 09:11:59;;;;;;;2.58;1.00;;;;;;;13.62;100.00;99113.34;4945549;28;20057;-73
2023/07/05 09:15:06;;;;;;;1.85;1.27;;;;;;;13.66;100.00;99168.81;4957465;28;20031;-74
2023/07/05 09:17:55;;;;;;;0.80;0.80;;;;;;;13.70;100.00;99215.44;4958629;28;20153;-74
2023/07/05 09:20:41;;;;;;;1.00;0.77;;;;;;;13.60;100.00;99286.31;4955592;28;20128;-73
2023/07/05 09:23:36;;;;;;;0.95;0.60;;;;;;;13.64;100.00;99332.97;4956369;28;20034;-73
2023/07/05 09:26:30;;;;;;;0.88;0.70;;;;;;;13.60;100.00;99379.38;4948889;28;20035;-73
2023/07/05 09:29:29;;;;;;;1.08;0.60;;;;;;;13.67;100.00;99438.22;4960665;28;20042;-75
2023/07/05 09:32:18;;;;;;;0.80;0.80;;;;;;;13.74;100.00;99478.47;4948625;28;20039;-75
2023/07/05 09:35:20;;;;;;;1.55;0.50;;;;;;;13.75;100.00;99512.06;4957565;28;20042;-74
2023/07/05 09:38:12;;;;;;;1.30;0.50;;;;;;;13.67;100.00;99580.00;4942566;28;20045;-74
2023/07/05 09:41:05;;;;;;;1.77;0.50;;;;;;;13.52;100.00;99616.59;4958541;28;20031;-73
2023/07/05 09:43:51;;;;;;;0.70;0.40;;;;;;;13.34;100.00;99637.47;4953184;28;20035;-73
2023/07/05 09:46:37;;;;;;;0.95;0.45;;;;;;;13.13;100.00;99648.75;4945210;28;20084;-75
2023/07/05 09:49:26;;;;;;;0.60;0.40;;;;;;;13.12;100.00;99662.16;4943480;28;20094;-75
2023/07/05 09:52:12;;;;;;;1.45;0.57;;;;;;;13.19;100.00;99711.25;4957480;28;20046;-75
2023/07/05 09:55:00;;;;;;;1.13;0.63;;;;;;;13.20;100.00;99722.69;4946219;28;20043;-77
2023/07/05 09:57:47;;;;;;;0.38;0.38;;;;;;;13.41;100.00;99758.31;4932244;28;20046;-75
2023/07/05 10:00:37;;;;;;;3.95;0.70;;;;;;;13.77;100.00;99784.09;4951643;28;20031;-76
2023/07/05 10:03:24;;;;;;;3.08;0.80;;;;;;;13.96;100.00;99783.53;4960287;28;20800;-76
2023/07/05 10:06:11;;;;;;;0.82;0.60;;;;;;;14.15;100.00;99793.63;4935862;28;20557;-76
2023/07/05 10:09:13;;;;;;;4.03;0.60;;;;;;;14.32;100.00;99794.13;4954430;28;20096;-75
2023/07/05 10:12:09;;;;;;;1.70;0.60;;;;;;;14.47;100.00;99814.22;4957471;28;20035;-75
2023/07/05 10:14:55;;;;;;;1.08;0.57;;;;;;;14.62;100.00;99864.59;4955873;28;20030;-75
2023/07/05 10:17:44;;;;;;;0.98;0.63;;;;;;;14.57;100.00;99856.97;4958744;28;20713;-75
2023/07/05 10:20:37;;;;;;;2.13;0.70;;;;;;;14.58;100.00;99868.44;4955917;28;20035;-76
2023/07/05 10:23:23;;;;;;;;;;;;;;;14.74;100.00;99889.44;4957566;28;20112;-76
2023/07/05 10:26:11;;;;;;;2.47;0.57;;;;;;;15.02;100.00;99896.13;4958029;28;19930;-75
2023/07/05 10:28:59;;;;;;;2.83;0.82;;;;;;;15.24;100.00;99913.06;4958430;28;20080;-77
2023/07/05 10:31:54;;;;;;;1.88;0.60;;;;;;;15.40;100.00;99922.47;4957074;28;20046;-76
2023/07/05 10:34:43;;;;;;;1.27;0.80;;;;;;;15.41;100.00;99929.53;4933707;28;20069;-75
2023/07/05 10:37:30;;;;;;;5.07;0.80;;;;;;;15.50;100.00;99931.44;4955345;28;20058;-74
2023/07/05 10:40:17;;;;;;;2.83;0.80;;;;;;;15.74;100.00;99933.06;4957212;28;20049;-76
2023/07/05 10:43:03;;;;;;;2.22;0.80;;;;;;;15.89;100.00;99950.53;4956608;28;20066;-74
2023/07/05 10:45:49;;;;;;;1.00;0.60;;;;;;;15.99;100.00;99961.31;4955443;28;20046;-76
2023/07/05 10:48:40;;;;;;;5.13;1.00;;;;;;;16.04;100.00;99971.63;4955031;28;20054;-75
2023/07/05 10:51:31;;;;;;;5.90;0.80;;;;;;;15.95;100.00;99970.53;4943654;28;20644;-76
2023/07/05 10:54:42;;;;;;;3.10;0.88;;;;;;;15.98;100.00;99985.47;4957057;28;20050;-75
2023/07/05 10:57:43;;;;;;;1.50;0.70;;;;;;;16.11;100.00;99991.50;4957915;28;20043;-75
2023/07/05 11:00:39;;;;;;;4.82;0.90;;;;;;;16.18;100.00;100015.84;4950202;28;20682;-76
2023/07/05 11:03:37;;;;;;;2.15;0.63;;;;;;;16.22;100.00;100008.44;4955584;28;20101;-78
2023/07/05 11:06:24;;;;;;;3.38;1.10;;;;;;;16.36;100.00;99999.28;4953282;28;20086;-77
2023/07/05 11:09:12;;;;;;;2.10;0.77;;;;;;;16.68;100.00;100012.59;4941319;28;20841;-76
2023/07/05 11:12:00;;;;;;;5.45;1.00;;;;;;;16.96;100.00;100012.09;4940533;28;20620;-76
2023/07/05 11:14:49;;;;;;;5.20;1.00;;;;;;;17.23;100.00;100008.03;4954972;28;20057;-76
2023/07/05 11:17:38;;;;;;;2.67;0.80;;;;;;;17.35;100.00;100027.50;4955073;28;20101;-75
2023/07/05 11:20:39;;;;;;;2.75;0.70;;;;;;;17.40;100.00;100041.34;4951815;28;20104;-77
2023/07/05 11:23:43;;;;;;;2.90;1.00;;;;;;;17.36;100.00;100050.59;4954386;28;20122;-77
2023/07/05 11:26:38;;;;;;;3.88;1.10;;;;;;;17.26;100.00;100060.41;4953399;28;20329;-76
2023/07/05 11:29:42;;;;;;;6.40;1.42;;;;;;;16.65;100.00;100130.44;4955655;28;20050;-75
2023/07/05 11:33:02;;;;;;;4.72;1.33;;;;;;;15.78;100.00;100120.47;4956861;28;20050;-75
2023/07/05 11:35:55;;;;;;;4.38;1.63;;;;;;;15.04;100.00;100126.06;4953206;28;20038;-77
2023/07/05 11:39:01;;;;;;;3.40;1.55;;;;;;;14.52;100.00;100142.28;4953210;28;20050;-73
2023/07/05 11:41:47;;;;;;;9.18;1.45;;;;;;;14.17;100.00;100143.03;4953479;28;20488;-73
2023/07/05 11:44:33;;;;;;;5.22;1.75;;;;;;;13.87;100.00;100157.56;4952446;28;20043;-74
2023/07/05 11:47:22;;;;;;;5.22;1.40;;;;;;;13.61;100.00;100172.69;4957263;28;20116;-75
2023/07/05 11:50:09;;;;;;;5.13;1.35;;;;;;;13.43;100.00;100187.09;4956590;28;20052;-75
2023/07/05 11:52:59;;;;;;;7.75;1.83;;;;;;;13.21;100.00;100187.69;4958525;28;20411;-73
2023/07/05 11:55:46;;;;;;;11.20;2.05;;;;;;;13.01;100.00;100219.09;4957395;28;20046;-73
2023/07/05 11:58:35;;;;;;;8.68;1.80;;;;;;;12.82;100.00;100203.53;4948002;28;20139;-75
2023/07/05 12:01:28;;;;;;;8.82;2.17;;;;;;;12.70;100.00;100215.78;4940419;28;20492;-74
2023/07/05 12:04:20;;;;;;;5.15;2.40;;;;;;;12.58;100.00;100224.56;4957969;28;20053;-74
2023/07/05 12:07:08;;;;;;;8.98;2.30;;;;;;;12.47;100.00;100230.53;4964048;28;20035;-74
2023/07/05 12:09:56;;;;;;;8.30;2.15;;;;;;;12.42;100.00;100249.41;4955079;28;20097;-74
2023/07/05 12:12:43;;;;;;;8.73;2.33;;;;;;;12.45;100.00;100269.59;4952714;28;20885;-73
2023/07/05 12:15:29;;;;;;;8.13;2.17;;;;;;;12.44;100.00;100252.81;4963360;28;20066;-74
2023/07/05 12:18:15;;;;;;;10.52;2.45;;;;;;;12.41;100.00;100279.56;4949860;28;20062;-74
2023/07/05 12:21:10;;;;;;;4.80;1.80;;;;;;;12.40;100.00;100287.59;4956531;28;20045;-74
2023/07/05 12:23:56;;;;;;;7.60;2.22;;;;;;;12.44;100.00;100300.63;4967891;28;20086;-73
2023/07/05 12:26:43;;;;;;;6.55;2.30;;;;;;;12.47;100.00;100323.44;4965396;28;20030;-73
2023/07/05 12:29:28;;;;;;;9.60;2.85;;;;;;;12.47;100.00;100321.66;4963039;28;20039;-75
2023/07/05 12:32:20;;;;;;;10.50;2.35;;;;;;;12.45;100.00;100354.53;4967799;28;20039;-73
2023/07/05 12:35:17;;;;;;;9.52;2.60;;;;;;;12.39;100.00;100371.72;4955891;28;20038;-74
2023/07/05 12:38:15;;;;;;;8.38;2.05;;;;;;;12.41;100.00;100382.25;4966248;28;20047;-75
2023/07/05 12:41:02;;;;;;;5.25;1.77;;;;;;;12.39;100.00;100392.09;4958344;28;20050;-76
2023/07/05 12:43:49;;;;;;;7.40;2.08;;;;;;;12.35;100.00;100405.56;4959124;28;20037;-74
2023/07/05 12:46:36;;;;;;;4.93;2.50;;;;;;;12.36;100.00;100438.25;4960194;28;20039;-75
2023/07/05 12:49:26;;;;;;;7.30;2.17;;;;;;;12.39;100.00;100450.47;4954669;28;20816;-75
2023/07/05 12:52:20;;;;;;;4.57;1.73;;;;;;;12.38;100.00;100478.84;4956411;28;20482;-76
2023/07/05 12:55:24;;;;;;;6.78;1.67;;;;;;;12.29;100.00;100451.03;4960740;28;20043;-75
2023/07/05 12:58:09;;;;;;;;;;;;;;;12.26;100.00;100493.66;4953468;28;20070;-73